Time;durP1;ratioP1;P1;durP2;ratioP2;P2;SDS_P1;SDS_P2;PMS_P1;PMS_P2;Temp;Humidity;BMP_temperature;BMP_pressure;BME280_temperature;BME280_humidity;BME280_pressure;Samples;Min_cycle;Max_cycle;Signal;HPM_P1;HPM_P2
2023/10/05 00:02:08;;;;;;;8.60;4.20;;;;;;;11.35;80.34;100847.35;131098;1256;106764;-78
2023/10/05 00:05:14;;;;;;;6.60;4.20;;;;;;;11.30;80.41;100844.00;131037;1256;107841;-78
2023/10/05 00:08:19;;;;;;;7.00;4.30;;;;;;;11.27;80.47;100844.73;131028;1257;106691;-79
2023/10/05 00:11:29;;;;;;;6.80;4.30;;;;;;;11.28;80.42;100843.28;131116;1256;107584;-77
2023/10/05 00:14:37;;;;;;;7.50;4.40;;;;;;;11.29;80.51;100838.73;130961;1258;109350;-78
2023/10/05 00:17:43;;;;;;;7.80;4.60;;;;;;;11.26;80.63;100836.85;131184;1256;107577;-77
2023/10/05 00:20:48;;;;;;;7.80;4.80;;;;;;;11.23;80.65;100837.63;131063;1255;107053;-77
2023/10/05 00:23:57;;;;;;;8.00;3.90;;;;;;;11.19;80.62;100838.18;131016;1265;108785;-77
2023/10/05 00:27:08;;;;;;;7.40;4.30;;;;;;;11.16;80.79;100835.66;131055;1251;108702;-77
2023/10/05 00:30:17;;;;;;;9.90;4.40;;;;;;;11.11;80.57;100829.48;131020;1256;106915;-77
2023/10/05 00:33:22;;;;;;;8.10;4.20;;;;;;;11.10;80.93;100828.16;131075;1255;107914;-77
2023/10/05 00:36:33;;;;;;;8.90;4.80;;;;;;;11.11;81.04;100823.41;131047;1264;107196;-77
2023/10/05 00:39:41;;;;;;;9.70;5.60;;;;;;;11.10;80.85;100820.36;131082;1251;106378;-77
2023/10/05 00:42:50;;;;;;;5.80;4.60;;;;;;;11.08;80.86;100818.02;130962;1259;107060;-76
2023/10/05 00:45:58;;;;;;;8.50;5.20;;;;;;;11.07;81.09;100819.01;131142;1256;107825;-76
2023/10/05 00:49:13;;;;;;;9.30;4.90;;;;;;;11.05;81.01;100810.38;130906;1256;269189;-77
2023/10/05 00:52:24;;;;;;;9.40;4.30;;;;;;;11.01;81.33;100811.23;131011;1256;107849;-77
2023/10/05 00:55:29;;;;;;;8.30;4.90;;;;;;;11.03;81.28;100806.08;131104;1256;107816;-77
2023/10/05 00:58:42;;;;;;;8.60;5.20;;;;;;;11.04;81.31;100804.89;130911;1259;107714;-77
2023/10/05 01:02:03;;;;;;;9.70;5.20;;;;;;;11.08;81.79;100800.39;130993;1261;107707;-77
2023/10/05 01:05:15;;;;;;;9.20;5.20;;;;;;;11.09;81.44;100800.11;130958;1250;106517;-80
2023/10/05 01:08:23;;;;;;;8.80;5.20;;;;;;;11.10;81.85;100804.92;131066;1251;107573;-77
2023/10/05 01:11:40;;;;;;;9.70;5.00;;;;;;;11.09;81.37;100800.36;131061;1257;108599;-77
2023/10/05 01:14:51;;;;;;;8.00;4.40;;;;;;;11.07;81.89;100798.71;130845;1267;106515;-77
2023/10/05 01:17:56;;;;;;;8.40;4.90;;;;;;;11.08;81.76;100799.69;131008;1261;106897;-78
2023/10/05 01:21:03;;;;;;;9.90;5.40;;;;;;;11.11;81.84;100804.41;130935;1256;106648;-77
2023/10/05 01:24:10;;;;;;;8.60;5.10;;;;;;;11.14;81.66;100802.91;131036;1255;106083;-77
2023/10/05 01:27:16;;;;;;;7.20;4.90;;;;;;;11.12;81.68;100802.71;130963;1264;107565;-77
2023/10/05 01:30:22;;;;;;;9.00;5.60;;;;;;;11.10;81.93;100799.66;131049;1265;108630;-77
2023/10/05 01:33:29;;;;;;;7.70;5.30;;;;;;;11.07;81.86;100792.71;131064;1256;107625;-78
2023/10/05 01:36:35;;;;;;;8.00;4.30;;;;;;;11.05;81.86;100787.37;130918;1256;106852;-78
2023/10/05 01:39:44;;;;;;;8.00;4.30;;;;;;;11.05;81.99;100778.61;130932;1266;106073;-78
2023/10/05 01:42:51;;;;;;;8.40;4.80;;;;;;;11.07;82.23;100775.96;131054;1257;106511;-78
2023/10/05 01:45:57;;;;;;;7.00;4.60;;;;;;;11.10;82.01;100777.39;131084;1257;106792;-78
2023/10/05 01:49:04;;;;;;;7.50;4.90;;;;;;;11.13;82.04;100775.39;131017;1256;106351;-78
2023/10/05 01:52:10;;;;;;;8.00;5.20;;;;;;;11.14;82.37;100781.89;130895;1251;106640;-78
2023/10/05 01:55:18;;;;;;;6.90;4.30;;;;;;;11.12;82.19;100781.11;131021;1258;107905;-78
2023/10/05 01:58:24;;;;;;;9.60;5.20;;;;;;;11.12;82.44;100772.96;131016;1257;106850;-78
2023/10/05 02:01:34;;;;;;;9.10;5.40;;;;;;;11.12;82.42;100767.10;130954;1256;108708;-78
2023/10/05 02:04:43;;;;;;;8.40;5.20;;;;;;;11.12;82.31;100768.46;130842;1257;107363;-77
2023/10/05 02:07:50;;;;;;;8.70;5.10;;;;;;;11.14;82.35;100763.92;131013;1257;105548;-77
2023/10/05 02:10:56;;;;;;;9.40;5.60;;;;;;;11.14;82.67;100767.05;131035;1257;107577;-77
2023/10/05 02:14:03;;;;;;;10.20;5.20;;;;;;;11.16;82.76;100762.27;130906;1251;108381;-78
2023/10/05 02:17:13;;;;;;;8.60;4.90;;;;;;;11.14;82.81;100759.80;130913;1251;106581;-79
2023/10/05 02:20:38;;;;;;;7.60;4.60;;;;;;;11.13;82.66;100759.56;131093;1251;107311;-79
2023/10/05 02:23:47;;;;;;;7.80;4.90;;;;;;;11.13;82.66;100758.13;130950;1252;107625;-77
2023/10/05 02:27:11;;;;;;;8.90;5.10;;;;;;;11.15;82.83;100759.39;131394;1256;107505;-78
2023/10/05 02:30:18;;;;;;;9.60;5.00;;;;;;;11.16;82.63;100764.53;131221;1255;108453;-78
2023/10/05 02:33:27;;;;;;;8.10;4.80;;;;;;;11.15;82.91;100766.98;131451;1254;106648;-78
2023/10/05 02:36:34;;;;;;;8.60;5.40;;;;;;;11.16;82.75;100761.04;131383;1251;106997;-82
2023/10/05 02:39:40;;;;;;;7.50;5.00;;;;;;;11.13;82.88;100753.98;131143;1257;106490;-78
2023/10/05 02:42:51;;;;;;;7.40;4.70;;;;;;;11.13;82.97;100752.41;131080;1255;106540;-79
2023/10/05 02:46:08;;;;;;;7.20;4.80;;;;;;;11.13;83.02;100756.10;130899;1257;108737;-79
2023/10/05 02:49:15;;;;;;;9.10;5.00;;;;;;;11.14;83.11;100757.80;131110;1256;107246;-77
2023/10/05 02:52:25;;;;;;;8.20;5.30;;;;;;;11.14;82.71;100763.48;131104;1257;107145;-79
2023/10/05 02:55:35;;;;;;;9.40;5.60;;;;;;;11.14;82.90;100765.50;131002;1257;106657;-78
2023/10/05 02:58:43;;;;;;;7.90;5.40;;;;;;;11.13;83.15;100761.53;130838;1257;106466;-77
2023/10/05 03:01:49;;;;;;;12.40;5.20;;;;;;;11.09;83.07;100757.45;131091;1251;107433;-80
2023/10/05 03:04:58;;;;;;;9.20;4.90;;;;;;;11.06;82.95;100753.59;131076;1253;107134;-78
2023/10/05 03:08:05;;;;;;;7.90;4.80;;;;;;;11.05;83.14;100753.73;130956;1257;107711;-78
2023/10/05 03:11:12;;;;;;;9.20;4.70;;;;;;;11.04;83.06;100751.98;131128;1257;107039;-78
2023/10/05 03:14:18;;;;;;;8.90;5.40;;;;;;;11.03;83.26;100749.80;130963;1264;107332;-78
2023/10/05 03:17:26;;;;;;;9.00;4.90;;;;;;;11.00;83.44;100749.36;131057;1251;106812;-78
2023/10/05 03:20:32;;;;;;;9.80;5.40;;;;;;;10.95;83.10;100745.66;131011;1257;105876;-77
2023/10/05 03:23:40;;;;;;;10.20;5.20;;;;;;;10.91;83.22;100739.00;131013;1257;105812;-78
2023/10/05 03:26:48;;;;;;;7.90;4.60;;;;;;;10.86;83.31;100733.89;131094;1250;106798;-79
2023/10/05 03:30:00;;;;;;;12.00;5.50;;;;;;;10.82;83.54;100731.27;131074;1264;106943;-78
2023/10/05 03:33:07;;;;;;;7.90;4.90;;;;;;;10.81;83.50;100732.59;131106;1257;107764;-79
2023/10/05 03:36:15;;;;;;;10.60;4.90;;;;;;;10.81;83.35;100729.41;131077;1251;106670;-78
2023/10/05 03:39:23;;;;;;;9.10;5.30;;;;;;;10.79;83.37;100730.45;131092;1257;108010;-78
2023/10/05 03:42:29;;;;;;;10.80;5.40;;;;;;;10.75;83.82;100730.09;130959;1266;108737;-79
2023/10/05 03:45:35;;;;;;;11.70;5.00;;;;;;;10.71;83.71;100728.19;130884;1251;107272;-78
2023/10/05 03:48:42;;;;;;;7.60;4.70;;;;;;;10.68;83.63;100730.44;130874;1257;107664;-78
2023/10/05 03:51:50;;;;;;;8.60;5.20;;;;;;;10.65;84.26;100732.34;131005;1251;107737;-78
2023/10/05 03:55:05;;;;;;;8.70;4.80;;;;;;;10.65;83.94;100729.35;131115;1254;107766;-78
2023/10/05 03:58:11;;;;;;;10.60;5.40;;;;;;;10.64;84.07;100732.61;131016;1251;106892;-78
2023/10/05 04:01:17;;;;;;;12.40;5.90;;;;;;;10.61;84.11;100733.36;131071;1255;107655;-78
2023/10/05 04:04:28;;;;;;;8.80;5.00;;;;;;;10.57;83.92;100727.55;131017;1258;107648;-78
2023/10/05 04:07:33;;;;;;;8.90;5.30;;;;;;;10.52;83.65;100722.61;131056;1254;107086;-78
2023/10/05 04:10:46;;;;;;;9.60;4.70;;;;;;;10.50;83.72;100720.70;131005;1261;106626;-78
2023/10/05 04:13:53;;;;;;;9.10;5.10;;;;;;;10.48;84.42;100716.80;131332;1251;106770;-81
2023/10/05 04:17:07;;;;;;;10.20;5.10;;;;;;;10.48;84.04;100715.04;133107;1251;107370;-78
2023/10/05 04:20:19;;;;;;;8.80;4.80;;;;;;;10.50;83.99;100717.86;132929;1251;106782;-76
2023/10/05 04:23:27;;;;;;;7.30;4.70;;;;;;;10.51;84.17;100708.85;131476;1251;107823;-76
2023/10/05 04:26:37;;;;;;;8.70;5.20;;;;;;;10.51;84.17;100702.84;131202;1254;107355;-79
2023/10/05 04:29:42;;;;;;;10.40;5.00;;;;;;;10.47;84.01;100693.73;131292;1251;107855;-79
2023/10/05 04:32:48;;;;;;;10.10;4.60;;;;;;;10.43;84.22;100694.50;131106;1254;106840;-79
2023/10/05 04:35:55;;;;;;;9.20;4.70;;;;;;;10.40;84.32;100689.24;130969;1264;108564;-78
2023/10/05 04:39:06;;;;;;;9.80;5.00;;;;;;;10.40;84.33;100683.23;130810;1260;106955;-79
2023/10/05 04:42:15;;;;;;;10.90;5.20;;;;;;;10.41;84.05;100678.66;131023;1254;107785;-79
2023/10/05 04:45:23;;;;;;;8.80;5.20;;;;;;;10.39;84.33;100672.61;130970;1264;107622;-79
2023/10/05 04:48:31;;;;;;;11.40;5.30;;;;;;;10.37;84.33;100673.03;130968;1251;107558;-79
2023/10/05 04:51:40;;;;;;;9.90;5.00;;;;;;;10.34;84.49;100666.46;130943;1255;108560;-80
2023/10/05 04:54:48;;;;;;;8.60;4.30;;;;;;;10.31;84.21;100658.45;131055;1255;108107;-81
2023/10/05 04:58:13;;;;;;;10.10;5.20;;;;;;;10.30;84.50;100651.76;130961;1254;107732;-79
2023/10/05 05:01:28;;;;;;;9.70;5.10;;;;;;;10.32;84.38;100641.96;131831;1254;107321;-79
2023/10/05 05:05:04;;;;;;;10.90;4.90;;;;;;;10.37;84.34;100636.50;130977;1252;106527;-79
2023/10/05 05:08:11;;;;;;;7.90;5.00;;;;;;;10.40;84.30;100632.33;130976;1256;106803;-79
2023/10/05 05:11:20;;;;;;;10.60;5.60;;;;;;;10.41;84.34;100635.21;130988;1255;107805;-79
2023/10/05 05:14:28;;;;;;;8.90;4.70;;;;;;;10.40;84.07;100636.70;130965;1251;108592;-79
2023/10/05 05:17:34;;;;;;;7.40;4.70;;;;;;;10.41;84.48;100635.10;130933;1264;106217;-79
2023/10/05 05:20:40;;;;;;;8.50;4.90;;;;;;;10.43;84.44;100634.59;131063;1254;106852;-79
2023/10/05 05:23:47;;;;;;;8.90;4.90;;;;;;;10.47;84.55;100638.09;130972;1251;106472;-79
2023/10/05 05:26:53;;;;;;;7.90;5.00;;;;;;;10.52;84.60;100641.39;130876;1266;107584;-79
2023/10/05 05:29:59;;;;;;;10.20;5.50;;;;;;;10.56;84.54;100641.29;130988;1251;106466;-79
2023/10/05 05:33:10;;;;;;;8.80;5.20;;;;;;;10.61;84.66;100642.63;130982;1257;107992;-81
2023/10/05 05:36:16;;;;;;;8.70;5.50;;;;;;;10.63;84.27;100630.89;130951;1267;106013;-80
2023/10/05 05:39:25;;;;;;;10.60;4.90;;;;;;;10.67;84.44;100629.14;131129;1255;106582;-80
2023/10/05 05:42:32;;;;;;;10.50;4.60;;;;;;;10.74;84.35;100626.98;131086;1255;108796;-80
2023/10/05 05:45:39;;;;;;;10.90;5.10;;;;;;;10.82;84.44;100623.56;131039;1256;107669;-78
2023/10/05 05:48:48;;;;;;;8.70;4.80;;;;;;;10.92;84.09;100625.34;131046;1252;108621;-78
2023/10/05 05:51:57;;;;;;;10.50;5.00;;;;;;;11.02;84.33;100628.66;131037;1264;105947;-79
2023/10/05 05:55:10;;;;;;;8.80;5.10;;;;;;;11.11;84.37;100622.98;131066;1256;108625;-78
2023/10/05 05:58:16;;;;;;;9.90;5.10;;;;;;;11.18;84.54;100623.02;131049;1254;107869;-78
2023/10/05 06:01:22;;;;;;;8.10;4.80;;;;;;;11.27;84.25;100621.09;130941;1251;105565;-79
2023/10/05 06:04:28;;;;;;;8.20;4.40;;;;;;;11.35;84.31;100623.66;130916;1257;106717;-78
2023/10/05 06:07:33;;;;;;;8.90;4.70;;;;;;;11.45;84.21;100620.80;130984;1251;108185;-78
2023/10/05 06:10:43;;;;;;;9.70;4.40;;;;;;;11.56;84.22;100616.67;131045;1252;106812;-80
2023/10/05 06:13:49;;;;;;;8.60;5.10;;;;;;;11.65;84.09;100611.68;131035;1255;107716;-80
2023/10/05 06:16:54;;;;;;;9.80;4.80;;;;;;;11.72;83.75;100616.13;131010;1266;107773;-80
2023/10/05 06:20:00;;;;;;;8.40;5.10;;;;;;;11.78;83.71;100613.21;130922;1254;107194;-80
2023/10/05 06:23:06;;;;;;;9.30;5.20;;;;;;;11.78;83.72;100617.31;130936;1255;106799;-80
2023/10/05 06:26:12;;;;;;;8.20;4.70;;;;;;;11.77;83.62;100614.02;130972;1257;106501;-81
2023/10/05 06:29:17;;;;;;;7.70;4.60;;;;;;;11.77;83.55;100613.32;130982;1257;106025;-81
2023/10/05 06:32:23;;;;;;;9.50;4.90;;;;;;;11.80;83.64;100621.83;131011;1255;108460;-80
2023/10/05 06:35:28;;;;;;;8.20;4.80;;;;;;;11.88;83.80;100621.16;131002;1256;106670;-79
2023/10/05 06:38:35;;;;;;;8.90;4.60;;;;;;;12.00;83.70;100619.98;130985;1264;106943;-82
2023/10/05 06:41:41;;;;;;;9.90;4.60;;;;;;;12.08;83.33;100613.84;131113;1251;106317;-81
2023/10/05 06:44:46;;;;;;;8.70;4.70;;;;;;;12.13;83.32;100616.32;131089;1254;105670;-79
2023/10/05 06:47:54;;;;;;;10.10;5.60;;;;;;;12.17;83.48;100617.39;131039;1255;106050;-79
2023/10/05 06:51:00;;;;;;;9.00;4.90;;;;;;;12.18;82.97;100619.44;131000;1254;106566;-79
2023/10/05 06:54:06;;;;;;;7.40;3.90;;;;;;;12.15;83.09;100618.28;130948;1252;106596;-79
2023/10/05 06:57:11;;;;;;;7.80;4.20;;;;;;;12.18;83.06;100622.98;130945;1250;108362;-80
2023/10/05 07:00:20;;;;;;;7.90;4.30;;;;;;;12.22;82.94;100616.42;130987;1255;108718;-80
2023/10/05 07:03:25;;;;;;;11.70;4.80;;;;;;;12.26;82.87;100618.46;130996;1257;106973;-80
2023/10/05 07:06:32;;;;;;;7.80;4.40;;;;;;;12.32;82.64;100610.85;130998;1251;108740;-79
2023/10/05 07:09:38;;;;;;;9.80;4.80;;;;;;;12.37;82.67;100606.61;130967;1254;107728;-81
2023/10/05 07:12:46;;;;;;;8.60;4.70;;;;;;;12.41;82.64;100602.33;131166;1254;107664;-81
2023/10/05 07:15:52;;;;;;;8.20;4.50;;;;;;;12.44;82.51;100604.11;130931;1257;106403;-79
2023/10/05 07:18:57;;;;;;;6.50;3.80;;;;;;;12.50;82.41;100599.10;130986;1254;106862;-79
2023/10/05 07:22:03;;;;;;;6.70;4.30;;;;;;;12.60;82.50;100600.61;130993;1251;107108;-81
2023/10/05 07:25:11;;;;;;;9.20;4.50;;;;;;;12.75;82.43;100594.04;131007;1256;107690;-81
2023/10/05 07:28:17;;;;;;;8.10;4.50;;;;;;;12.88;82.06;100594.27;131154;1254;107619;-79
2023/10/05 07:31:23;;;;;;;8.40;5.10;;;;;;;13.00;82.09;100594.89;130996;1254;108823;-79
2023/10/05 07:34:29;;;;;;;8.20;4.30;;;;;;;13.10;82.07;100592.19;131085;1254;107528;-79
2023/10/05 07:37:35;;;;;;;7.70;4.80;;;;;;;13.20;81.77;100594.34;130973;1255;106652;-80
2023/10/05 07:40:42;;;;;;;6.30;4.10;;;;;;;13.29;81.58;100599.81;131019;1257;107064;-79
2023/10/05 07:43:47;;;;;;;8.30;4.20;;;;;;;13.39;81.78;100598.42;131049;1256;108667;-79
2023/10/05 07:46:53;;;;;;;7.70;4.30;;;;;;;13.49;81.37;100595.60;130977;1257;108555;-79
2023/10/05 07:49:58;;;;;;;8.60;4.10;;;;;;;13.59;81.09;100588.27;131042;1250;107372;-80
2023/10/05 07:53:04;;;;;;;10.10;4.00;;;;;;;13.73;80.94;100582.98;130963;1250;107830;-79
2023/10/05 07:56:10;;;;;;;8.30;4.10;;;;;;;13.94;80.55;100576.86;130993;1250;109036;-79
2023/10/05 07:59:16;;;;;;;6.80;3.60;;;;;;;14.19;80.75;100576.80;130970;1256;107726;-79
2023/10/05 08:02:22;;;;;;;9.70;4.20;;;;;;;14.46;80.31;100562.45;131074;1254;108411;-79
2023/10/05 08:05:27;;;;;;;6.50;3.70;;;;;;;14.70;79.48;100560.35;131023;1251;107314;-79
2023/10/05 08:08:34;;;;;;;7.30;4.10;;;;;;;14.97;79.99;100561.67;131041;1257;107519;-79
2023/10/05 08:11:40;;;;;;;7.40;4.00;;;;;;;15.20;79.11;100561.89;131034;1254;107057;-79
2023/10/05 08:14:46;;;;;;;7.30;3.40;;;;;;;15.33;79.00;100567.04;131045;1256;108740;-80
2023/10/05 08:17:51;;;;;;;6.70;3.40;;;;;;;15.42;78.64;100564.02;131002;1251;108736;-80
2023/10/05 08:20:57;;;;;;;6.90;3.20;;;;;;;15.47;77.81;100559.00;130936;1256;106863;-80
2023/10/05 08:24:04;;;;;;;7.20;3.60;;;;;;;15.49;77.75;100564.34;130821;1250;108639;-80
2023/10/05 08:27:14;;;;;;;6.70;3.60;;;;;;;15.47;77.31;100559.93;130952;1254;107470;-80
2023/10/05 08:30:19;;;;;;;5.60;3.10;;;;;;;15.48;77.65;100561.95;131046;1256;107769;-80
2023/10/05 08:33:26;;;;;;;5.40;3.10;;;;;;;15.49;77.73;100561.08;130985;1257;107553;-80
2023/10/05 08:36:33;;;;;;;6.80;3.60;;;;;;;15.48;77.02;100561.16;131038;1254;108785;-79
2023/10/05 08:39:38;;;;;;;6.10;3.50;;;;;;;15.47;77.08;100562.02;130957;1251;107538;-79
2023/10/05 08:42:47;;;;;;;6.30;3.30;;;;;;;15.49;76.47;100560.02;131060;1251;107514;-79
2023/10/05 08:46:01;;;;;;;6.90;3.40;;;;;;;15.57;75.92;100563.07;131074;1254;107955;-79
2023/10/05 08:49:07;;;;;;;5.80;3.20;;;;;;;15.64;75.73;100563.09;131057;1254;106879;-79
2023/10/05 08:52:19;;;;;;;7.40;3.40;;;;;;;15.78;76.07;100557.77;130941;1257;107660;-79
2023/10/05 08:55:28;;;;;;;6.80;3.30;;;;;;;15.93;75.27;100559.19;130949;1255;106550;-79
2023/10/05 08:58:34;;;;;;;7.50;3.00;;;;;;;16.06;74.31;100550.01;131026;1254;107786;-80
2023/10/05 09:01:42;;;;;;;5.40;3.60;;;;;;;16.20;75.12;100550.45;130935;1256;106637;-79
2023/10/05 09:04:57;;;;;;;6.70;3.70;;;;;;;16.30;73.52;100547.91;131096;1251;107911;-79
2023/10/05 09:08:07;;;;;;;7.80;4.00;;;;;;;16.35;74.00;100545.36;131032;1251;106422;-79
2023/10/05 09:11:14;;;;;;;7.80;4.00;;;;;;;16.37;72.22;100551.37;131000;1254;109257;-79
2023/10/05 09:14:27;;;;;;;6.60;3.80;;;;;;;16.37;73.02;100547.09;131000;1254;107252;-80
2023/10/05 09:17:34;;;;;;;8.60;4.00;;;;;;;16.47;72.28;100549.65;130980;1251;106558;-80
2023/10/05 09:20:41;;;;;;;8.60;4.30;;;;;;;16.60;72.27;100541.52;130970;1256;106592;-80
2023/10/05 09:23:47;;;;;;;8.50;4.30;;;;;;;16.75;71.72;100537.27;131001;1256;108049;-80
2023/10/05 09:26:55;;;;;;;6.60;3.90;;;;;;;16.88;72.36;100530.44;130990;1256;108496;-80
2023/10/05 09:30:11;;;;;;;6.40;3.60;;;;;;;17.04;71.95;100526.48;130986;1255;106852;-80
2023/10/05 09:33:19;;;;;;;7.90;4.10;;;;;;;17.09;70.02;100525.39;131031;1254;107019;-80
2023/10/05 09:36:25;;;;;;;7.30;3.40;;;;;;;17.03;70.34;100522.04;130968;1254;106742;-80
2023/10/05 09:39:31;;;;;;;7.70;3.60;;;;;;;16.99;69.20;100518.52;130927;1251;108407;-80
2023/10/05 09:42:40;;;;;;;5.50;2.90;;;;;;;16.95;69.07;100515.14;130945;1254;106619;-80
2023/10/05 09:45:49;;;;;;;6.90;3.50;;;;;;;16.91;68.67;100514.01;130936;1254;107708;-80
2023/10/05 09:48:56;;;;;;;6.20;3.30;;;;;;;16.90;69.59;100512.84;130899;1251;107314;-80
2023/10/05 09:52:02;;;;;;;6.70;3.50;;;;;;;16.96;69.41;100510.71;130975;1254;108439;-80
2023/10/05 09:55:12;;;;;;;4.50;2.60;;;;;;;17.00;69.23;100510.77;130954;1254;106698;-80
2023/10/05 09:58:20;;;;;;;6.90;3.40;;;;;;;17.05;69.61;100519.23;131060;1254;108137;-80
2023/10/05 10:01:27;;;;;;;6.30;2.80;;;;;;;17.15;69.62;100518.23;130978;1254;106468;-81
2023/10/05 10:04:36;;;;;;;7.20;2.80;;;;;;;17.22;69.28;100512.27;131029;1251;107004;-80
2023/10/05 10:07:43;;;;;;;7.20;3.00;;;;;;;17.32;68.84;100519.35;130972;1256;108140;-79
2023/10/05 10:11:01;;;;;;;6.50;3.20;;;;;;;17.39;67.48;100510.61;131027;1254;107940;-80
2023/10/05 10:14:14;;;;;;;6.50;2.90;;;;;;;17.44;67.46;100508.09;131046;1251;107580;-80
2023/10/05 10:17:28;;;;;;;6.30;2.90;;;;;;;17.46;66.87;100513.98;130957;1254;107710;-80
2023/10/05 10:20:36;;;;;;;9.50;3.10;;;;;;;17.45;66.65;100516.80;131021;1251;106475;-79
2023/10/05 10:23:50;;;;;;;5.60;2.50;;;;;;;17.51;67.08;100512.90;131042;1255;107025;-80
2023/10/05 10:27:08;;;;;;;6.20;2.50;;;;;;;17.56;66.24;100518.83;130974;1256;107173;-79
2023/10/05 10:30:15;;;;;;;4.00;2.80;;;;;;;17.55;66.36;100517.39;130971;1254;107618;-79
2023/10/05 10:33:27;;;;;;;7.70;3.10;;;;;;;17.59;65.81;100516.21;131009;1254;106803;-79
2023/10/05 10:36:53;;;;;;;8.10;3.40;;;;;;;17.63;64.73;100517.59;131025;1254;107593;-79
2023/10/05 10:39:59;;;;;;;6.80;3.00;;;;;;;17.61;65.10;100514.08;131094;1250;109343;-80
2023/10/05 10:43:09;;;;;;;6.90;3.10;;;;;;;17.61;64.59;100509.35;131131;1253;107517;-81
2023/10/05 10:46:28;;;;;;;6.20;3.30;;;;;;;17.58;64.88;100507.21;131139;1254;106424;-79
2023/10/05 10:49:34;;;;;;;7.70;3.20;;;;;;;17.52;64.97;100501.54;131086;1256;107457;-80
2023/10/05 10:52:40;;;;;;;6.80;2.90;;;;;;;17.39;64.53;100497.42;131071;1256;106874;-79
2023/10/05 10:55:52;;;;;;;8.60;3.90;;;;;;;17.26;64.54;100495.96;130957;1252;106682;-79
2023/10/05 10:59:09;;;;;;;6.30;3.40;;;;;;;17.14;64.28;100497.16;131109;1251;108866;-81
2023/10/05 11:02:19;;;;;;;7.80;3.30;;;;;;;17.10;64.71;100494.34;130986;1251;107901;-80
2023/10/05 11:05:40;;;;;;;7.10;3.50;;;;;;;17.08;64.74;100497.46;130977;1256;106865;-80
2023/10/05 11:08:52;;;;;;;5.10;3.00;;;;;;;17.00;64.36;100489.73;130884;1257;106534;-80
2023/10/05 11:12:09;;;;;;;6.80;3.50;;;;;;;17.00;64.82;100489.86;130961;1251;106407;-79
2023/10/05 11:15:18;;;;;;;6.70;3.40;;;;;;;17.04;64.78;100489.11;131006;1251;107103;-80
2023/10/05 11:18:24;;;;;;;6.00;3.40;;;;;;;17.09;64.83;100475.23;131025;1251;108490;-79
2023/10/05 11:21:33;;;;;;;6.20;3.10;;;;;;;17.07;64.02;100477.80;130936;1251;106535;-79
2023/10/05 11:25:14;;;;;;;6.90;3.30;;;;;;;17.01;64.30;100477.11;131000;1251;108843;-79
2023/10/05 11:28:25;;;;;;;7.20;3.60;;;;;;;16.94;64.11;100476.80;131041;1255;108499;-79
2023/10/05 11:31:34;;;;;;;7.00;3.40;;;;;;;16.93;64.29;100466.84;130972;1254;106513;-79
2023/10/05 11:34:43;;;;;;;6.50;3.30;;;;;;;16.99;64.71;100452.73;130984;1256;107081;-79
2023/10/05 11:37:58;;;;;;;8.00;3.70;;;;;;;17.04;64.19;100450.88;130973;1254;107035;-79
2023/10/05 11:41:09;;;;;;;7.20;3.70;;;;;;;17.00;63.36;100447.05;130989;1250;106188;-80
2023/10/05 11:44:20;;;;;;;7.20;3.10;;;;;;;16.99;64.22;100440.34;131031;1256;106944;-79
2023/10/05 11:47:32;;;;;;;6.10;3.60;;;;;;;17.02;63.77;100436.02;131019;1253;107468;-80
2023/10/05 11:50:36;;;;;;;;;;;;;;;17.03;63.90;100435.02;131026;1255;108445;-79
2023/10/05 11:53:43;;;;;;;7.20;3.10;;;;;;;17.02;63.64;100428.14;131003;1254;106660;-80
2023/10/05 11:56:49;;;;;;;6.10;3.20;;;;;;;17.00;63.40;100427.66;130947;1254;106826;-79
2023/10/05 11:59:59;;;;;;;6.90;3.40;;;;;;;16.99;63.00;100433.00;131087;1257;107871;-79
2023/10/05 12:03:09;;;;;;;9.50;3.70;;;;;;;17.01;63.67;100439.98;131076;1251;107277;-80
2023/10/05 12:06:23;;;;;;;7.30;3.40;;;;;;;17.07;62.86;100437.23;130974;1254;108231;-79
2023/10/05 12:09:32;;;;;;;8.50;3.50;;;;;;;17.08;63.20;100451.45;131021;1251;107541;-80
2023/10/05 12:12:37;;;;;;;6.50;3.40;;;;;;;17.10;63.33;100443.56;131009;1255;107786;-80
2023/10/05 12:15:43;;;;;;;6.60;3.50;;;;;;;17.09;63.34;100441.07;130987;1255;107064;-79
2023/10/05 12:18:51;;;;;;;5.90;3.30;;;;;;;17.07;62.65;100439.76;130979;1256;107527;-79
2023/10/05 12:21:59;;;;;;;6.90;3.30;;;;;;;17.02;62.95;100436.23;131031;1251;107610;-79
2023/10/05 12:25:08;;;;;;;7.50;3.20;;;;;;;16.94;62.11;100439.34;131038;1254;106617;-79
2023/10/05 12:28:21;;;;;;;8.10;3.10;;;;;;;16.90;62.15;100438.40;131008;1256;107888;-79
2023/10/05 12:31:27;;;;;;;5.60;2.90;;;;;;;16.89;62.07;100430.10;131042;1254;106642;-79
2023/10/05 12:34:35;;;;;;;5.40;3.00;;;;;;;16.88;61.95;100425.33;131057;1256;106896;-80
2023/10/05 12:37:41;;;;;;;4.80;2.80;;;;;;;16.91;61.94;100422.45;130965;1255;106523;-79
2023/10/05 12:40:47;;;;;;;6.80;2.60;;;;;;;16.97;62.09;100421.44;130974;1256;107374;-79
2023/10/05 12:43:53;;;;;;;6.50;2.90;;;;;;;16.96;61.42;100421.52;130990;1251;106673;-79
2023/10/05 12:46:59;;;;;;;5.20;2.40;;;;;;;16.94;61.93;100416.40;130989;1255;108656;-80
2023/10/05 12:50:05;;;;;;;5.40;2.80;;;;;;;16.98;61.49;100411.79;130915;1251;141433;-80
2023/10/05 12:53:11;;;;;;;5.00;2.60;;;;;;;17.00;61.79;100411.51;131024;1251;107827;-80
2023/10/05 12:56:17;;;;;;;7.00;2.90;;;;;;;17.00;61.22;100408.81;131078;1256;106224;-80
2023/10/05 12:59:24;;;;;;;5.40;2.30;;;;;;;16.99;61.30;100408.33;131075;1255;106127;-80
2023/10/05 13:02:29;;;;;;;3.80;2.30;;;;;;;16.98;61.24;100401.16;131034;1257;106819;-81
2023/10/05 13:05:43;;;;;;;6.40;2.50;;;;;;;16.98;61.26;100399.52;131156;1254;107723;-80
2023/10/05 13:08:48;;;;;;;4.90;2.40;;;;;;;16.95;61.37;100400.95;131256;1251;107048;-80
2023/10/05 13:11:54;;;;;;;5.70;2.80;;;;;;;16.89;60.74;100400.41;131206;1254;107432;-79
2023/10/05 13:15:03;;;;;;;17.90;11.00;;;;;;;16.83;61.29;100400.05;131184;1254;106668;-80
2023/10/05 13:18:21;;;;;;;7.60;5.00;;;;;;;16.76;61.11;100404.72;131262;1251;107779;-81
2023/10/05 13:21:28;;;;;;;7.10;3.30;;;;;;;16.67;61.15;100400.77;131572;1251;107398;-81
2023/10/05 13:24:36;;;;;;;5.60;3.20;;;;;;;16.59;60.61;100411.90;131186;1256;107724;-80
2023/10/05 13:27:42;;;;;;;6.70;4.50;;;;;;;16.52;60.43;100414.64;131145;1254;107224;-80
2023/10/05 13:30:50;;;;;;;6.50;3.90;;;;;;;16.46;60.32;100412.11;131237;1255;107563;-79
2023/10/05 13:33:59;;;;;;;18.00;10.40;;;;;;;16.42;60.82;100410.86;131105;1250;106950;-79
2023/10/05 13:37:08;;;;;;;134.50;57.00;;;;;;;16.41;60.67;100416.02;131077;1254;107161;-78
2023/10/05 13:40:15;;;;;;;27.50;14.30;;;;;;;16.42;60.96;100414.09;130933;1251;107651;-79
2023/10/05 13:43:21;;;;;;;13.80;8.00;;;;;;;16.42;61.09;100414.13;131075;1253;106690;-80
2023/10/05 13:46:35;;;;;;;47.50;32.80;;;;;;;16.38;60.48;100415.32;131077;1254;107514;-80
2023/10/05 13:49:51;;;;;;;11.10;6.70;;;;;;;16.28;60.26;100410.92;131132;1256;107834;-77
2023/10/05 13:52:57;;;;;;;12.30;4.40;;;;;;;16.23;60.47;100417.66;131066;1255;107665;-77
2023/10/05 13:56:03;;;;;;;8.70;4.00;;;;;;;16.15;60.29;100418.48;131753;1255;106613;-78
2023/10/05 13:59:17;;;;;;;32.30;18.90;;;;;;;16.09;60.71;100410.95;131034;1255;107725;-78
2023/10/05 14:02:23;;;;;;;8.40;4.10;;;;;;;16.05;60.80;100418.43;130940;1253;107568;-78
2023/10/05 14:05:31;;;;;;;6.80;3.30;;;;;;;15.99;60.59;100411.35;131341;1251;107517;-78
2023/10/05 14:08:36;;;;;;;7.80;4.60;;;;;;;15.92;60.40;100409.96;131278;1250;107877;-78
2023/10/05 14:11:45;;;;;;;8.00;4.90;;;;;;;15.88;60.87;100408.71;131158;1251;106588;-77
2023/10/05 14:14:51;;;;;;;6.50;4.00;;;;;;;15.88;61.02;100405.59;131388;1255;107480;-77
2023/10/05 14:17:56;;;;;;;7.30;3.30;;;;;;;15.86;60.88;100408.10;130974;1252;107870;-78